NOAA Web Site Link Tides and Currents Home Page Transparent placeholder image

PORTS® Data Listing: 8519483 Bergen Point West Reach, NY

CO-OPS RAW PORTS DATA

************************      PRELIMINARY DATA      ************************** 

     THIS RAW DATA HAS NOT BEEN SUBJECT TO THE NATIONAL OCEAN SERVICE'S        
     QUALITY CONTROL OR QUALITY ASSURANCE PROCEDURES AND DOES NOT MEET         
     THE CRITERIA AND STANDARDS OF OFFICIAL NATIONAL OCEAN SERVICE             
     DATA.  IT IS RELEASED FOR LIMITED PUBLIC USE AS PRELIMINARY DATA TO       
     BE USED ONLY WITH APPROPRIATE CAUTION.                                    

************************      PRELIMINARY DATA      ************************** 


       CD   -   Calendar date
       T    -   Time
       TZ   -   Timezone
       PW   -   Predicted water level (feet above MLLW)
       OW   -   Observed water level (feet above MLLW)
       WS   -   Wind speed (knots)
       WD   -   Wind direction (degrees true)
       WG   -   Wind gust (knots)
       AT   -   Air temperature (degrees farenheit)
       WT   -   Water temperature (degrees farenheit)
       AP   -   Air pressure (millibars)
       SA   -   Salinty (PSU - Practical Salinity Units)
       SG   -   Specific gravity
       RH   -   Relative humidity
       AG   -   Air gap (feet)
       VI   -   Visibility (nautical miles)

       ** NOTE **
       A variable that has its data fields filled with "9"s, indicates that
       data was not collected for that sample period.
       **********


STATION NAME: Bergen Point West Reach (8519483)
****************************************************************************************************
    CD       T    TZ    PW     OW    WS   WD   WG    AT    WT    AP    SA    SG     RH    AG   VI
****************************************************************************************************
2019/06/17 07:18 EDT    4.23   4.43 -999 -999 -999  70.2  67.3 1012.8 -9.9 -9.999 -99.9 -99.99 -9.99
2019/06/17 07:24 EDT    4.33   4.53 -999 -999 -999  70.0  67.3 1013.3 -9.9 -9.999 -99.9 -99.99 -9.99
2019/06/17 07:30 EDT    4.42   4.61 -999 -999 -999  69.8  67.3 1013.3 -9.9 -9.999 -99.9 -99.99 -9.99
2019/06/17 07:36 EDT    4.51   4.70 -999 -999 -999  69.8  67.3 1013.3 -9.9 -9.999 -99.9 -99.99 -9.99
2019/06/17 07:42 EDT    4.60   4.77 -999 -999 -999  69.8  67.3 1013.6 -9.9 -9.999 -99.9 -99.99 -9.99
2019/06/17 07:48 EDT    4.68   4.86 -999 -999 -999  69.8  67.3 1013.9 -9.9 -9.999 -99.9 -99.99 -9.99
2019/06/17 07:54 EDT    4.75   4.93 -999 -999 -999  69.8  67.3 1014.1 -9.9 -9.999 -99.9 -99.99 -9.99
2019/06/17 08:00 EDT    4.82   5.06 -999 -999 -999  70.2  67.3 1014.4 -9.9 -9.999 -99.9 -99.99 -9.99
2019/06/17 08:06 EDT    4.88   5.12 -999 -999 -999  70.0  67.3 1014.5 -9.9 -9.999 -99.9 -99.99 -9.99
2019/06/17 08:12 EDT    4.94   5.18 -999 -999 -999  70.2  67.3 1014.7 -9.9 -9.999 -99.9 -99.99 -9.99
2019/06/17 08:18 EDT    4.99   5.27 -999 -999 -999  70.0  67.3 1014.8 -9.9 -9.999 -99.9 -99.99 -9.99
2019/06/17 08:24 EDT    5.04   5.33 -999 -999 -999  70.2  67.3 1014.9 -9.9 -9.999 -99.9 -99.99 -9.99
2019/06/17 08:30 EDT    5.08   5.41 -999 -999 -999  70.2  67.3 1014.9 -9.9 -9.999 -99.9 -99.99 -9.99
2019/06/17 08:36 EDT    5.11   5.45 -999 -999 -999  70.5  67.3 1015.1 -9.9 -9.999 -99.9 -99.99 -9.99
2019/06/17 08:42 EDT    5.13   5.49 -999 -999 -999  70.2  67.3 1015.0 -9.9 -9.999 -99.9 -99.99 -9.99
2019/06/17 08:48 EDT    5.15   5.53 -999 -999 -999  70.5  67.1 1015.2 -9.9 -9.999 -99.9 -99.99 -9.99
2019/06/17 08:54 EDT    5.16   5.55 -999 -999 -999  70.7  67.1 1015.2 -9.9 -9.999 -99.9 -99.99 -9.99
2019/06/17 09:00 EDT    5.17   5.55 -999 -999 -999  71.1  67.1 1015.1 -9.9 -9.999 -99.9 -99.99 -9.99
2019/06/17 09:06 EDT    5.17   5.59 -999 -999 -999  71.1  67.1 1015.1 -9.9 -9.999 -99.9 -99.99 -9.99
2019/06/17 09:12 EDT    5.16   5.57 -999 -999 -999  71.2  67.1 1015.2 -9.9 -9.999 -99.9 -99.99 -9.99
2019/06/17 09:18 EDT    5.14   5.57 -999 -999 -999  71.2  67.1 1015.2 -9.9 -9.999 -99.9 -99.99 -9.99
2019/06/17 09:24 EDT    5.12   5.56 -999 -999 -999  71.4  67.1 1015.1 -9.9 -9.999 -99.9 -99.99 -9.99
2019/06/17 09:30 EDT    5.09   5.55 -999 -999 -999  72.0  67.1 1015.0 -9.9 -9.999 -99.9 -99.99 -9.99
2019/06/17 09:36 EDT    5.05   5.54 -999 -999 -999  72.3  67.1 1015.1 -9.9 -9.999 -99.9 -99.99 -9.99
2019/06/17 09:42 EDT    5.01   5.48 -999 -999 -999  72.3  67.1 1014.9 -9.9 -9.999 -99.9 -99.99 -9.99
2019/06/17 09:48 EDT    4.96   5.42 -999 -999 -999  72.0  67.1 1014.8 -9.9 -9.999 -99.9 -99.99 -9.99
2019/06/17 09:54 EDT    4.90   5.35 -999 -999 -999  72.1  67.1 1014.8 -9.9 -9.999 -99.9 -99.99 -9.99
2019/06/17 10:00 EDT    4.83   5.27 -999 -999 -999  72.1  67.3 1014.7 -9.9 -9.999 -99.9 -99.99 -9.99
2019/06/17 10:06 EDT    4.76   5.20 -999 -999 -999  72.3  67.5 1014.8 -9.9 -9.999 -99.9 -99.99 -9.99
2019/06/17 10:12 EDT    4.69   5.13 -999 -999 -999  73.0  67.5 1014.8 -9.9 -9.999 -99.9 -99.99 -9.99
2019/06/17 10:18 EDT    4.60   5.03 -999 -999 -999  73.4  67.5 1015.0 -9.9 -9.999 -99.9 -99.99 -9.99
2019/06/17 10:24 EDT    4.52   4.94 -999 -999 -999  73.0  67.5 1014.9 -9.9 -9.999 -99.9 -99.99 -9.99
2019/06/17 10:30 EDT    4.42   4.83 -999 -999 -999  72.5  67.5 1014.9 -9.9 -9.999 -99.9 -99.99 -9.99
2019/06/17 10:36 EDT    4.33   4.72 -999 -999 -999  72.3  67.5 1014.8 -9.9 -9.999 -99.9 -99.99 -9.99
2019/06/17 10:42 EDT    4.23   4.58 -999 -999 -999  72.0  67.5 1014.9 -9.9 -9.999 -99.9 -99.99 -9.99
2019/06/17 10:48 EDT    4.12   4.46 -999 -999 -999  72.5  67.6 1014.8 -9.9 -9.999 -99.9 -99.99 -9.99
2019/06/17 10:54 EDT    4.02   4.37 -999 -999 -999  72.9  67.6 1014.9 -9.9 -9.999 -99.9 -99.99 -9.99
2019/06/17 11:00 EDT    3.91   4.27 -999 -999 -999  72.9  67.6 1014.7 -9.9 -9.999 -99.9 -99.99 -9.99
2019/06/17 11:06 EDT    3.80   4.15 -999 -999 -999  73.0  67.6 1014.6 -9.9 -9.999 -99.9 -99.99 -9.99
2019/06/17 11:12 EDT    3.68   4.03 -999 -999 -999  73.6  67.6 1014.6 -9.9 -9.999 -99.9 -99.99 -9.99
2019/06/17 11:18 EDT    3.57   3.92 -999 -999 -999  74.3  67.6 1014.9 -9.9 -9.999 -99.9 -99.99 -9.99
2019/06/17 11:24 EDT    3.45   3.81 -999 -999 -999  73.2  67.6 1014.9 -9.9 -9.999 -99.9 -99.99 -9.99
2019/06/17 11:30 EDT    3.34   3.69 -999 -999 -999  73.9  67.6 1015.0 -9.9 -9.999 -99.9 -99.99 -9.99
2019/06/17 11:36 EDT    3.22   3.57 -999 -999 -999  73.2  67.6 1015.3 -9.9 -9.999 -99.9 -99.99 -9.99
2019/06/17 11:42 EDT    3.11   3.44 -999 -999 -999  73.0  67.8 1015.2 -9.9 -9.999 -99.9 -99.99 -9.99
2019/06/17 11:48 EDT    2.99   3.32 -999 -999 -999  73.6  67.8 1015.3 -9.9 -9.999 -99.9 -99.99 -9.99
2019/06/17 11:54 EDT    2.88   3.19 -999 -999 -999  73.8  67.8 1015.4 -9.9 -9.999 -99.9 -99.99 -9.99
2019/06/17 12:00 EDT    2.76   3.06 -999 -999 -999  73.9  67.8 1015.4 -9.9 -9.999 -99.9 -99.99 -9.99
2019/06/17 12:06 EDT    2.65   2.92 -999 -999 -999  73.8  68.0 1015.6 -9.9 -9.999 -99.9 -99.99 -9.99
2019/06/17 12:12 EDT    2.54   2.78 -999 -999 -999  73.6  68.0 1016.0 -9.9 -9.999 -99.9 -99.99 -9.99
2019/06/17 12:18 EDT    2.43   2.66 -999 -999 -999  73.9  68.0 1015.8 -9.9 -9.999 -99.9 -99.99 -9.99
2019/06/17 12:24 EDT    2.33   2.52 -999 -999 -999  73.6  68.0 1015.6 -9.9 -9.999 -99.9 -99.99 -9.99
2019/06/17 12:30 EDT    2.22   2.39 -999 -999 -999  74.1  68.0 1015.2 -9.9 -9.999 -99.9 -99.99 -9.99
2019/06/17 12:36 EDT    2.12   2.28 -999 -999 -999  74.5  68.2 1015.6 -9.9 -9.999 -99.9 -99.99 -9.99
2019/06/17 12:42 EDT    2.02   2.17 -999 -999 -999  74.7  68.2 1015.5 -9.9 -9.999 -99.9 -99.99 -9.99
2019/06/17 12:48 EDT    1.92   2.04 -999 -999 -999  74.5  68.2 1015.6 -9.9 -9.999 -99.9 -99.99 -9.99
2019/06/17 12:54 EDT    1.82   1.94 -999 -999 -999  74.8  68.2 1015.6 -9.9 -9.999 -99.9 -99.99 -9.99
2019/06/17 13:00 EDT    1.72   1.82 -999 -999 -999  75.2  68.4 1015.6 -9.9 -9.999 -99.9 -99.99 -9.99
2019/06/17 13:06 EDT    1.63   1.72 -999 -999 -999  74.8  68.4 1015.6 -9.9 -9.999 -99.9 -99.99 -9.99
2019/06/17 13:12 EDT    1.53   1.62 -999 -999 -999  75.4  68.4 1015.7 -9.9 -9.999 -99.9 -99.99 -9.99
2019/06/17 13:18 EDT    1.44   1.53 -999 -999 -999  74.8  68.4 1015.6 -9.9 -9.999 -99.9 -99.99 -9.99
2019/06/17 13:24 EDT    1.35   1.44 -999 -999 -999  75.4  68.4 1015.5 -9.9 -9.999 -99.9 -99.99 -9.99
2019/06/17 13:30 EDT    1.26   1.36 -999 -999 -999  75.6  68.4 1015.5 -9.9 -9.999 -99.9 -99.99 -9.99
2019/06/17 13:36 EDT    1.18   1.28 -999 -999 -999  74.7  68.4 1015.5 -9.9 -9.999 -99.9 -99.99 -9.99
2019/06/17 13:42 EDT    1.09   1.20 -999 -999 -999  74.1  68.4 1015.5 -9.9 -9.999 -99.9 -99.99 -9.99
2019/06/17 13:48 EDT    1.01   1.13 -999 -999 -999  74.1  68.4 1015.6 -9.9 -9.999 -99.9 -99.99 -9.99
2019/06/17 13:54 EDT    0.93   1.07 -999 -999 -999  73.9  68.4 1015.5 -9.9 -9.999 -99.9 -99.99 -9.99
2019/06/17 14:00 EDT    0.85   0.99 -999 -999 -999  73.9  68.4 1015.5 -9.9 -9.999 -99.9 -99.99 -9.99
2019/06/17 14:06 EDT    0.78   0.91 -999 -999 -999  73.9  68.5 1015.6 -9.9 -9.999 -99.9 -99.99 -9.99
2019/06/17 14:12 EDT    0.70   0.85 -999 -999 -999  73.4  68.5 1015.6 -9.9 -9.999 -99.9 -99.99 -9.99
2019/06/17 14:18 EDT    0.63   0.78 -999 -999 -999  73.9  68.5 1015.7 -9.9 -9.999 -99.9 -99.99 -9.99
2019/06/17 14:24 EDT    0.57   0.73 -999 -999 -999  73.9  68.5 1015.7 -9.9 -9.999 -99.9 -99.99 -9.99
2019/06/17 14:30 EDT    0.51   0.67 -999 -999 -999  73.8  68.5 1015.8 -9.9 -9.999 -99.9 -99.99 -9.99
2019/06/17 14:36 EDT    0.45   0.62 -999 -999 -999  74.1  68.5 1015.9 -9.9 -9.999 -99.9 -99.99 -9.99
2019/06/17 14:42 EDT    0.40   0.56 -999 -999 -999  73.9  68.7 1015.8 -9.9 -9.999 -99.9 -99.99 -9.99
2019/06/17 14:48 EDT    0.35   0.55 -999 -999 -999  74.3  68.7 1015.8 -9.9 -9.999 -99.9 -99.99 -9.99
2019/06/17 14:54 EDT    0.31   0.48 -999 -999 -999  74.1  68.7 1015.9 -9.9 -9.999 -99.9 -99.99 -9.99
2019/06/17 15:00 EDT    0.28   0.42 -999 -999 -999  74.3  68.7 1015.8 -9.9 -9.999 -99.9 -99.99 -9.99
2019/06/17 15:06 EDT    0.25   0.42 -999 -999 -999  73.6  68.5 1015.8 -9.9 -9.999 -99.9 -99.99 -9.99
2019/06/17 15:12 EDT    0.23   0.42 -999 -999 -999  73.4  68.5 1015.9 -9.9 -9.999 -99.9 -99.99 -9.99
2019/06/17 15:18 EDT    0.22   0.40 -999 -999 -999  73.2  68.5 1015.9 -9.9 -9.999 -99.9 -99.99 -9.99
2019/06/17 15:24 EDT    0.22   0.39 -999 -999 -999  73.4  68.5 1015.8 -9.9 -9.999 -99.9 -99.99 -9.99
2019/06/17 15:30 EDT    0.22   0.39 -999 -999 -999  73.4  68.5 1015.6 -9.9 -9.999 -99.9 -99.99 -9.99
2019/06/17 15:36 EDT    0.24   0.41 -999 -999 -999  73.8  68.5 1015.8 -9.9 -9.999 -99.9 -99.99 -9.99
2019/06/17 15:42 EDT    0.26   0.47 -999 -999 -999  73.9  68.5 1016.0 -9.9 -9.999 -99.9 -99.99 -9.99
2019/06/17 15:48 EDT    0.29   0.51 -999 -999 -999  74.1  68.5 1015.8 -9.9 -9.999 -99.9 -99.99 -9.99
2019/06/17 15:54 EDT    0.33   0.55 -999 -999 -999  74.3  68.5 1015.9 -9.9 -9.999 -99.9 -99.99 -9.99
2019/06/17 16:00 EDT    0.38   0.64 -999 -999 -999  74.1  68.5 1015.8 -9.9 -9.999 -99.9 -99.99 -9.99
2019/06/17 16:06 EDT    0.44   0.70 -999 -999 -999  73.6  68.4 1015.8 -9.9 -9.999 -99.9 -99.99 -9.99
2019/06/17 16:12 EDT    0.51   0.79 -999 -999 -999  73.6  68.4 1015.7 -9.9 -9.999 -99.9 -99.99 -9.99
2019/06/17 16:18 EDT    0.59   0.89 -999 -999 -999  74.1  68.4 1015.6 -9.9 -9.999 -99.9 -99.99 -9.99
2019/06/17 16:24 EDT    0.68   0.98 -999 -999 -999  74.8  68.4 1015.5 -9.9 -9.999 -99.9 -99.99 -9.99
2019/06/17 16:30 EDT    0.77   1.11 -999 -999 -999  74.7  68.2 1015.4 -9.9 -9.999 -99.9 -99.99 -9.99
2019/06/17 16:36 EDT    0.88   1.23 -999 -999 -999  75.0  68.2 1015.4 -9.9 -9.999 -99.9 -99.99 -9.99
2019/06/17 16:42 EDT    0.99   1.36 -999 -999 -999  74.8  68.2 1015.3 -9.9 -9.999 -99.9 -99.99 -9.99
2019/06/17 16:48 EDT    1.11   1.49 -999 -999 -999  75.2  68.2 1015.4 -9.9 -9.999 -99.9 -99.99 -9.99
2019/06/17 16:54 EDT    1.24   1.65 -999 -999 -999  74.7  68.2 1015.4 -9.9 -9.999 -99.9 -99.99 -9.99
2019/06/17 17:00 EDT    1.37   1.82 -999 -999 -999  74.5  68.2 1015.3 -9.9 -9.999 -99.9 -99.99 -9.99
2019/06/17 17:06 EDT    1.52   2.00 -999 -999 -999  74.7  68.2 1015.1 -9.9 -9.999 -99.9 -99.99 -9.99
2019/06/17 17:12 EDT    1.66   2.15 -999 -999 -999  74.1  68.2 1015.0 -9.9 -9.999 -99.9 -99.99 -9.99
2019/06/17 17:18 EDT    1.81   2.31 -999 -999 -999  74.5  68.2 1015.0 -9.9 -9.999 -99.9 -99.99 -9.99
2019/06/17 17:24 EDT    1.97   2.48 -999 -999 -999  74.7  68.2 1015.0 -9.9 -9.999 -99.9 -99.99 -9.99
2019/06/17 17:30 EDT    2.13   2.65 -999 -999 -999  75.0  68.0 1015.0 -9.9 -9.999 -99.9 -99.99 -9.99
2019/06/17 17:36 EDT    2.29   2.83 -999 -999 -999  74.5  68.0 1014.9 -9.9 -9.999 -99.9 -99.99 -9.99
2019/06/17 17:42 EDT    2.45   2.99 -999 -999 -999  74.5  68.2 1014.9 -9.9 -9.999 -99.9 -99.99 -9.99
2019/06/17 17:48 EDT    2.62   3.16 -999 -999 -999  75.0  68.2 1014.8 -9.9 -9.999 -99.9 -99.99 -9.99
2019/06/17 17:54 EDT    2.79   3.34 -999 -999 -999  74.8  68.2 1014.9 -9.9 -9.999 -99.9 -99.99 -9.99
2019/06/17 18:00 EDT    2.95   3.50 -999 -999 -999  75.0  68.2 1014.9 -9.9 -9.999 -99.9 -99.99 -9.99
2019/06/17 18:06 EDT    3.12   3.68 -999 -999 -999  75.4  68.2 1014.9 -9.9 -9.999 -99.9 -99.99 -9.99
2019/06/17 18:12 EDT    3.28   3.85 -999 -999 -999  74.8  68.2 1014.9 -9.9 -9.999 -99.9 -99.99 -9.99
2019/06/17 18:18 EDT    3.44   4.00 -999 -999 -999  75.2  68.0 1014.9 -9.9 -9.999 -99.9 -99.99 -9.99
2019/06/17 18:24 EDT    3.60   4.17 -999 -999 -999  74.8  68.0 1014.9 -9.9 -9.999 -99.9 -99.99 -9.99
2019/06/17 18:30 EDT    3.76   4.33 -999 -999 -999  74.8  67.8 1014.8 -9.9 -9.999 -99.9 -99.99 -9.99
2019/06/17 18:36 EDT    3.92   4.48 -999 -999 -999  74.3  67.8 1014.9 -9.9 -9.999 -99.9 -99.99 -9.99
2019/06/17 18:42 EDT    4.07   4.62 -999 -999 -999  74.3  67.8 1015.0 -9.9 -9.999 -99.9 -99.99 -9.99
2019/06/17 18:48 EDT    4.22   4.78 -999 -999 -999  74.3  67.8 1014.9 -9.9 -9.999 -99.9 -99.99 -9.99
2019/06/17 18:54 EDT    4.36   4.93 -999 -999 -999  74.1  67.8 1014.8 -9.9 -9.999 -99.9 -99.99 -9.99
2019/06/17 19:00 EDT    4.50   5.06 -999 -999 -999  73.6  67.6 1014.9 -9.9 -9.999 -99.9 -99.99 -9.99
2019/06/17 19:06 EDT    4.63   5.19 -999 -999 -999  73.4  67.6 1014.9 -9.9 -9.999 -99.9 -99.99 -9.99
2019/06/17 19:12 EDT    4.76   5.31 -999 -999 -999  73.0  67.6 1015.0 -9.9 -9.999 -99.9 -99.99 -9.99
2019/06/17 19:18 EDT    4.89   5.39 -999 -999 -999  73.0  67.6 1015.1 -9.9 -9.999 -99.9 -99.99 -9.99
2019/06/17 19:24 EDT    5.01   5.51 -999 -999 -999  72.9  67.5 1015.2 -9.9 -9.999 -99.9 -99.99 -9.99
2019/06/17 19:30 EDT    5.12   5.60 -999 -999 -999  72.7  67.5 1015.2 -9.9 -9.999 -99.9 -99.99 -9.99
2019/06/17 19:36 EDT    5.23   5.67 -999 -999 -999  72.5  67.5 1015.3 -9.9 -9.999 -99.9 -99.99 -9.99
2019/06/17 19:42 EDT    5.33   5.73 -999 -999 -999  72.5  67.5 1015.3 -9.9 -9.999 -99.9 -99.99 -9.99
2019/06/17 19:48 EDT    5.43   5.81 -999 -999 -999  72.5  67.5 1015.3 -9.9 -9.999 -99.9 -99.99 -9.99
2019/06/17 19:54 EDT    5.52   5.85 -999 -999 -999  72.5  67.5 1015.2 -9.9 -9.999 -99.9 -99.99 -9.99
2019/06/17 20:00 EDT    5.61   5.90 -999 -999 -999  72.7  67.5 1015.2 -9.9 -9.999 -99.9 -99.99 -9.99
2019/06/17 20:06 EDT    5.69   5.94 -999 -999 -999  72.7  67.5 1015.1 -9.9 -9.999 -99.9 -99.99 -9.99
2019/06/17 20:12 EDT    5.77   5.97 -999 -999 -999  72.7  67.5 1015.1 -9.9 -9.999 -99.9 -99.99 -9.99
2019/06/17 20:18 EDT    5.84   6.05 -999 -999 -999  72.7  67.5 1015.2 -9.9 -9.999 -99.9 -99.99 -9.99
2019/06/17 20:24 EDT    5.90   6.02 -999 -999 -999  72.7  67.3 1015.2 -9.9 -9.999 -99.9 -99.99 -9.99
2019/06/17 20:30 EDT    5.96   6.10 -999 -999 -999  72.5  67.3 1015.1 -9.9 -9.999 -99.9 -99.99 -9.99
2019/06/17 20:36 EDT    6.01   6.13 -999 -999 -999  72.5  67.3 1015.1 -9.9 -9.999 -99.9 -99.99 -9.99
2019/06/17 20:42 EDT    6.05   6.17 -999 -999 -999  72.3  67.3 1014.9 -9.9 -9.999 -99.9 -99.99 -9.99
2019/06/17 20:48 EDT    6.09   6.17 -999 -999 -999  72.1  67.3 1014.9 -9.9 -9.999 -99.9 -99.99 -9.99
2019/06/17 20:54 EDT    6.12   6.21 -999 -999 -999  72.0  67.1 1014.8 -9.9 -9.999 -99.9 -99.99 -9.99
2019/06/17 21:00 EDT    6.15   6.25 -999 -999 -999  72.0  67.1 1014.8 -9.9 -9.999 -99.9 -99.99 -9.99
2019/06/17 21:06 EDT    6.17   6.23 -999 -999 -999  72.0  67.1 1014.9 -9.9 -9.999 -99.9 -99.99 -9.99
2019/06/17 21:12 EDT    6.18   6.27 -999 -999 -999  71.8  67.1 1014.9 -9.9 -9.999 -99.9 -99.99 -9.99
2019/06/17 21:18 EDT    6.18   6.30 -999 -999 -999  71.8  66.9 1015.2 -9.9 -9.999 -99.9 -99.99 -9.99
2019/06/17 21:24 EDT    6.18   6.32 -999 -999 -999  71.8  66.9 1015.3 -9.9 -9.999 -99.9 -99.99 -9.99
2019/06/17 21:30 EDT    6.17   6.33 -999 -999 -999  71.6  66.9 1015.3 -9.9 -9.999 -99.9 -99.99 -9.99
2019/06/17 21:36 EDT    6.15   6.33 -999 -999 -999  71.4  66.9 1015.4 -9.9 -9.999 -99.9 -99.99 -9.99
2019/06/17 21:42 EDT    6.13   6.32 -999 -999 -999  71.4  66.9 1015.4 -9.9 -9.999 -99.9 -99.99 -9.99
2019/06/17 21:48 EDT    6.09   6.31 -999 -999 -999  71.2  66.9 1015.3 -9.9 -9.999 -99.9 -99.99 -9.99
2019/06/17 21:54 EDT    6.05   6.30 -999 -999 -999  71.2  66.9 1015.3 -9.9 -9.999 -99.9 -99.99 -9.99
2019/06/17 22:00 EDT    6.01   6.27 -999 -999 -999  71.2  66.9 1015.3 -9.9 -9.999 -99.9 -99.99 -9.99
2019/06/17 22:06 EDT    5.95   6.24 -999 -999 -999  71.2  66.9 1015.3 -9.9 -9.999 -99.9 -99.99 -9.99
2019/06/17 22:12 EDT    5.89   6.20 -999 -999 -999  71.1  66.9 1015.3 -9.9 -9.999 -99.9 -99.99 -9.99
2019/06/17 22:18 EDT    5.82   6.15 -999 -999 -999  71.1  67.1 1015.4 -9.9 -9.999 -99.9 -99.99 -9.99
2019/06/17 22:24 EDT    5.75   6.08 -999 -999 -999  71.1  67.1 1015.6 -9.9 -9.999 -99.9 -99.99 -9.99
2019/06/17 22:30 EDT    5.67   6.00 -999 -999 -999  70.9  67.1 1015.6 -9.9 -9.999 -99.9 -99.99 -9.99
2019/06/17 22:36 EDT    5.58   5.93 -999 -999 -999  70.9  67.1 1015.5 -9.9 -9.999 -99.9 -99.99 -9.99
2019/06/17 22:42 EDT    5.49   5.84 -999 -999 -999  70.9  67.1 1015.4 -9.9 -9.999 -99.9 -99.99 -9.99
2019/06/17 22:48 EDT    5.39   5.75 -999 -999 -999  70.7  67.1 1015.5 -9.9 -9.999 -99.9 -99.99 -9.99
2019/06/17 22:54 EDT    5.28   5.66 -999 -999 -999  70.7  67.1 1015.5 -9.9 -9.999 -99.9 -99.99 -9.99
2019/06/17 23:00 EDT    5.18   5.55 -999 -999 -999  70.7  67.3 1015.7 -9.9 -9.999 -99.9 -99.99 -9.99
2019/06/17 23:06 EDT    5.06   5.42 -999 -999 -999  70.5  67.5 1015.8 -9.9 -9.999 -99.9 -99.99 -9.99
2019/06/17 23:12 EDT    4.95   5.31 -999 -999 -999  70.3  67.5 1015.9 -9.9 -9.999 -99.9 -99.99 -9.99
2019/06/17 23:18 EDT    4.82   5.19 -999 -999 -999  70.2  67.5 1015.9 -9.9 -9.999 -99.9 -99.99 -9.99
2019/06/17 23:24 EDT    4.70   5.07 -999 -999 -999  70.2  67.5 1015.8 -9.9 -9.999 -99.9 -99.99 -9.99
2019/06/17 23:30 EDT    4.57   4.95 -999 -999 -999  70.2  67.5 1015.7 -9.9 -9.999 -99.9 -99.99 -9.99
2019/06/17 23:36 EDT    4.44   4.82 -999 -999 -999  70.3  67.5 1015.7 -9.9 -9.999 -99.9 -99.99 -9.99
2019/06/17 23:42 EDT    4.31   4.69 -999 -999 -999  70.3  67.5 1015.6 -9.9 -9.999 -99.9 -99.99 -9.99
2019/06/17 23:48 EDT    4.18   4.56 -999 -999 -999  70.2  67.5 1015.5 -9.9 -9.999 -99.9 -99.99 -9.99
2019/06/17 23:54 EDT    4.05   4.43 -999 -999 -999  70.2  67.5 1015.5 -9.9 -9.999 -99.9 -99.99 -9.99
2019/06/18 00:00 EDT    3.91   4.30 -999 -999 -999  70.2  67.5 1015.5 -9.9 -9.999 -99.9 -99.99 -9.99
2019/06/18 00:06 EDT    3.78   4.15 -999 -999 -999  70.2  67.5 1015.4 -9.9 -9.999 -99.9 -99.99 -9.99
2019/06/18 00:12 EDT    3.64   4.02 -999 -999 -999  70.0  67.5 1015.5 -9.9 -9.999 -99.9 -99.99 -9.99
2019/06/18 00:18 EDT    3.51   3.88 -999 -999 -999  70.0  67.5 1015.5 -9.9 -9.999 -99.9 -99.99 -9.99
2019/06/18 00:24 EDT    3.38   3.73 -999 -999 -999  69.8  67.5 1015.6 -9.9 -9.999 -99.9 -99.99 -9.99
2019/06/18 00:30 EDT    3.24   3.59 -999 -999 -999  70.0  67.5 1015.6 -9.9 -9.999 -99.9 -99.99 -9.99
2019/06/18 00:36 EDT    3.11   3.44 -999 -999 -999  70.2  67.5 1015.5 -9.9 -9.999 -99.9 -99.99 -9.99
2019/06/18 00:42 EDT    2.98   3.28 -999 -999 -999  70.2  67.5 1015.4 -9.9 -9.999 -99.9 -99.99 -9.99
2019/06/18 00:48 EDT    2.85   3.14 -999 -999 -999  70.0  67.5 1015.3 -9.9 -9.999 -99.9 -99.99 -9.99
2019/06/18 00:54 EDT    2.72   2.99 -999 -999 -999  70.0  67.5 1015.2 -9.9 -9.999 -99.9 -99.99 -9.99
2019/06/18 01:00 EDT    2.59   2.84 -999 -999 -999  69.8  67.6 1015.1 -9.9 -9.999 -99.9 -99.99 -9.99
2019/06/18 01:06 EDT    2.46 -99.99 -999 -999 -999 -99.9 -99.9 -999.9 -9.9 -9.999 -99.9 -99.99 -9.99
2019/06/18 01:12 EDT    2.33 -99.99 -999 -999 -999 -99.9 -99.9 -999.9 -9.9 -9.999 -99.9 -99.99 -9.99
2019/06/18 01:18 EDT    2.21 -99.99 -999 -999 -999 -99.9 -99.9 -999.9 -9.9 -9.999 -99.9 -99.99 -9.99
2019/06/18 01:24 EDT    2.08 -99.99 -999 -999 -999 -99.9 -99.9 -999.9 -9.9 -9.999 -99.9 -99.99 -9.99
2019/06/18 01:30 EDT    1.96 -99.99 -999 -999 -999 -99.9 -99.9 -999.9 -9.9 -9.999 -99.9 -99.99 -9.99
2019/06/18 01:36 EDT    1.84 -99.99 -999 -999 -999 -99.9 -99.9 -999.9 -9.9 -9.999 -99.9 -99.99 -9.99
2019/06/18 01:42 EDT    1.72 -99.99 -999 -999 -999 -99.9 -99.9 -999.9 -9.9 -9.999 -99.9 -99.99 -9.99
2019/06/18 01:48 EDT    1.60 -99.99 -999 -999 -999 -99.9 -99.9 -999.9 -9.9 -9.999 -99.9 -99.99 -9.99
2019/06/18 01:54 EDT    1.48 -99.99 -999 -999 -999 -99.9 -99.9 -999.9 -9.9 -9.999 -99.9 -99.99 -9.99
2019/06/18 02:00 EDT    1.37 -99.99 -999 -999 -999 -99.9 -99.9 -999.9 -9.9 -9.999 -99.9 -99.99 -9.99
2019/06/18 02:06 EDT    1.25 -99.99 -999 -999 -999 -99.9 -99.9 -999.9 -9.9 -9.999 -99.9 -99.99 -9.99
2019/06/18 02:12 EDT    1.14 -99.99 -999 -999 -999 -99.9 -99.9 -999.9 -9.9 -9.999 -99.9 -99.99 -9.99
2019/06/18 02:18 EDT    1.03 -99.99 -999 -999 -999 -99.9 -99.9 -999.9 -9.9 -9.999 -99.9 -99.99 -9.99
2019/06/18 02:24 EDT    0.92 -99.99 -999 -999 -999 -99.9 -99.9 -999.9 -9.9 -9.999 -99.9 -99.99 -9.99
2019/06/18 02:30 EDT    0.81 -99.99 -999 -999 -999 -99.9 -99.9 -999.9 -9.9 -9.999 -99.9 -99.99 -9.99
2019/06/18 02:36 EDT    0.71 -99.99 -999 -999 -999 -99.9 -99.9 -999.9 -9.9 -9.999 -99.9 -99.99 -9.99
2019/06/18 02:42 EDT    0.61 -99.99 -999 -999 -999 -99.9 -99.9 -999.9 -9.9 -9.999 -99.9 -99.99 -9.99
2019/06/18 02:48 EDT    0.51 -99.99 -999 -999 -999 -99.9 -99.9 -999.9 -9.9 -9.999 -99.9 -99.99 -9.99
2019/06/18 02:54 EDT    0.42 -99.99 -999 -999 -999 -99.9 -99.9 -999.9 -9.9 -9.999 -99.9 -99.99 -9.99
2019/06/18 03:00 EDT    0.33 -99.99 -999 -999 -999 -99.9 -99.9 -999.9 -9.9 -9.999 -99.9 -99.99 -9.99
2019/06/18 03:06 EDT    0.25 -99.99 -999 -999 -999 -99.9 -99.9 -999.9 -9.9 -9.999 -99.9 -99.99 -9.99
2019/06/18 03:12 EDT    0.18 -99.99 -999 -999 -999 -99.9 -99.9 -999.9 -9.9 -9.999 -99.9 -99.99 -9.99
2019/06/18 03:18 EDT    0.10 -99.99 -999 -999 -999 -99.9 -99.9 -999.9 -9.9 -9.999 -99.9 -99.99 -9.99
2019/06/18 03:24 EDT    0.04 -99.99 -999 -999 -999 -99.9 -99.9 -999.9 -9.9 -9.999 -99.9 -99.99 -9.99
2019/06/18 03:30 EDT   -0.02 -99.99 -999 -999 -999 -99.9 -99.9 -999.9 -9.9 -9.999 -99.9 -99.99 -9.99
2019/06/18 03:36 EDT   -0.07 -99.99 -999 -999 -999 -99.9 -99.9 -999.9 -9.9 -9.999 -99.9 -99.99 -9.99
2019/06/18 03:42 EDT   -0.11 -99.99 -999 -999 -999 -99.9 -99.9 -999.9 -9.9 -9.999 -99.9 -99.99 -9.99
2019/06/18 03:48 EDT   -0.14 -99.99 -999 -999 -999 -99.9 -99.9 -999.9 -9.9 -9.999 -99.9 -99.99 -9.99
2019/06/18 03:54 EDT   -0.17 -99.99 -999 -999 -999 -99.9 -99.9 -999.9 -9.9 -9.999 -99.9 -99.99 -9.99
2019/06/18 04:00 EDT   -0.18 -99.99 -999 -999 -999 -99.9 -99.9 -999.9 -9.9 -9.999 -99.9 -99.99 -9.99
2019/06/18 04:06 EDT   -0.19 -99.99 -999 -999 -999 -99.9 -99.9 -999.9 -9.9 -9.999 -99.9 -99.99 -9.99
2019/06/18 04:12 EDT   -0.19 -99.99 -999 -999 -999 -99.9 -99.9 -999.9 -9.9 -9.999 -99.9 -99.99 -9.99
2019/06/18 04:18 EDT   -0.17 -99.99 -999 -999 -999 -99.9 -99.9 -999.9 -9.9 -9.999 -99.9 -99.99 -9.99
2019/06/18 04:24 EDT   -0.15 -99.99 -999 -999 -999 -99.9 -99.9 -999.9 -9.9 -9.999 -99.9 -99.99 -9.99
2019/06/18 04:30 EDT   -0.11 -99.99 -999 -999 -999 -99.9 -99.9 -999.9 -9.9 -9.999 -99.9 -99.99 -9.99
2019/06/18 04:36 EDT   -0.07 -99.99 -999 -999 -999 -99.9 -99.9 -999.9 -9.9 -9.999 -99.9 -99.99 -9.99
2019/06/18 04:42 EDT   -0.02 -99.99 -999 -999 -999 -99.9 -99.9 -999.9 -9.9 -9.999 -99.9 -99.99 -9.99
2019/06/18 04:48 EDT    0.05 -99.99 -999 -999 -999 -99.9 -99.9 -999.9 -9.9 -9.999 -99.9 -99.99 -9.99
2019/06/18 04:54 EDT    0.12 -99.99 -999 -999 -999 -99.9 -99.9 -999.9 -9.9 -9.999 -99.9 -99.99 -9.99
2019/06/18 05:00 EDT    0.20 -99.99 -999 -999 -999 -99.9 -99.9 -999.9 -9.9 -9.999 -99.9 -99.99 -9.99
2019/06/18 05:06 EDT    0.29 -99.99 -999 -999 -999 -99.9 -99.9 -999.9 -9.9 -9.999 -99.9 -99.99 -9.99
2019/06/18 05:12 EDT    0.39 -99.99 -999 -999 -999 -99.9 -99.9 -999.9 -9.9 -9.999 -99.9 -99.99 -9.99
2019/06/18 05:18 EDT    0.50 -99.99 -999 -999 -999 -99.9 -99.9 -999.9 -9.9 -9.999 -99.9 -99.99 -9.99
2019/06/18 05:24 EDT    0.61 -99.99 -999 -999 -999 -99.9 -99.9 -999.9 -9.9 -9.999 -99.9 -99.99 -9.99
2019/06/18 05:30 EDT    0.74 -99.99 -999 -999 -999 -99.9 -99.9 -999.9 -9.9 -9.999 -99.9 -99.99 -9.99
2019/06/18 05:36 EDT    0.86 -99.99 -999 -999 -999 -99.9 -99.9 -999.9 -9.9 -9.999 -99.9 -99.99 -9.99
2019/06/18 05:42 EDT    1.00 -99.99 -999 -999 -999 -99.9 -99.9 -999.9 -9.9 -9.999 -99.9 -99.99 -9.99
2019/06/18 05:48 EDT    1.13 -99.99 -999 -999 -999 -99.9 -99.9 -999.9 -9.9 -9.999 -99.9 -99.99 -9.99
2019/06/18 05:54 EDT    1.27 -99.99 -999 -999 -999 -99.9 -99.9 -999.9 -9.9 -9.999 -99.9 -99.99 -9.99
2019/06/18 06:00 EDT    1.42 -99.99 -999 -999 -999 -99.9 -99.9 -999.9 -9.9 -9.999 -99.9 -99.99 -9.99
2019/06/18 06:06 EDT    1.57 -99.99 -999 -999 -999 -99.9 -99.9 -999.9 -9.9 -9.999 -99.9 -99.99 -9.99
2019/06/18 06:12 EDT    1.72 -99.99 -999 -999 -999 -99.9 -99.9 -999.9 -9.9 -9.999 -99.9 -99.99 -9.99
2019/06/18 06:18 EDT    1.87 -99.99 -999 -999 -999 -99.9 -99.9 -999.9 -9.9 -9.999 -99.9 -99.99 -9.99
2019/06/18 06:24 EDT    2.02 -99.99 -999 -999 -999 -99.9 -99.9 -999.9 -9.9 -9.999 -99.9 -99.99 -9.99
2019/06/18 06:30 EDT    2.17 -99.99 -999 -999 -999 -99.9 -99.9 -999.9 -9.9 -9.999 -99.9 -99.99 -9.99
2019/06/18 06:36 EDT    2.32 -99.99 -999 -999 -999 -99.9 -99.9 -999.9 -9.9 -9.999 -99.9 -99.99 -9.99
2019/06/18 06:42 EDT    2.47 -99.99 -999 -999 -999 -99.9 -99.9 -999.9 -9.9 -9.999 -99.9 -99.99 -9.99
2019/06/18 06:48 EDT    2.62 -99.99 -999 -999 -999 -99.9 -99.9 -999.9 -9.9 -9.999 -99.9 -99.99 -9.99
2019/06/18 06:54 EDT    2.77 -99.99 -999 -999 -999 -99.9 -99.9 -999.9 -9.9 -9.999 -99.9 -99.99 -9.99
2019/06/18 07:00 EDT    2.91 -99.99 -999 -999 -999 -99.9 -99.9 -999.9 -9.9 -9.999 -99.9 -99.99 -9.99
2019/06/18 07:06 EDT    3.05 -99.99 -999 -999 -999 -99.9 -99.9 -999.9 -9.9 -9.999 -99.9 -99.99 -9.99
2019/06/18 07:12 EDT    3.19 -99.99 -999 -999 -999 -99.9 -99.9 -999.9 -9.9 -9.999 -99.9 -99.99 -9.99
2019/06/18 07:18 EDT    3.32 -99.99 -999 -999 -999 -99.9 -99.9 -999.9 -9.9 -9.999 -99.9 -99.99 -9.99

Revised: 08/08/2018
NOAA / National Ocean Service
Web site owner: Center for Operational Oceanographic Products and Services